createdAt,value
2022-12-19T00:04:37.211Z,51.57
2022-12-19T00:09:38.807Z,51.66
2022-12-19T00:14:40.294Z,51.82
2022-12-19T00:19:41.826Z,51.71
2022-12-19T00:24:43.356Z,51.77
2022-12-19T00:29:44.901Z,52.02
2022-12-19T00:34:46.403Z,51.76
2022-12-19T00:39:47.909Z,51.70
2022-12-19T00:44:49.417Z,52.06
2022-12-19T00:49:50.936Z,51.71
2022-12-19T00:54:52.440Z,52.11
2022-12-19T00:59:54.449Z,52.04
2022-12-19T01:04:56.029Z,51.76
2022-12-19T01:09:57.543Z,51.56
2022-12-19T01:15:04.448Z,51.76
2022-12-19T01:20:07.455Z,51.98
2022-12-19T01:25:11.156Z,52.08
2022-12-19T01:30:13.840Z,51.78
2022-12-19T01:35:22.050Z,52.21
2022-12-19T01:40:24.322Z,52.10
2022-12-19T01:45:34.356Z,52.02
2022-12-19T01:51:01.651Z,52.09
2022-12-19T01:56:10.443Z,52.23
2022-12-19T02:01:13.169Z,52.07
2022-12-19T02:06:17.243Z,52.15
2022-12-19T02:11:19.491Z,51.86
2022-12-19T02:16:39.884Z,52.14
2022-12-19T02:21:58.225Z,52.08
2022-12-19T02:27:19.722Z,51.94
2022-12-19T02:32:31.115Z,51.93
2022-12-19T02:37:55.571Z,52.13
2022-12-19T02:43:03.794Z,52.18
2022-12-19T02:48:09.020Z,51.85
2022-12-19T02:53:14.091Z,51.87
2022-12-19T02:58:35.929Z,51.97
2022-12-19T03:03:55.188Z,51.96
2022-12-19T03:09:08.332Z,52.01
2022-12-19T03:14:18.390Z,52.05
2022-12-19T03:19:20.086Z,52.35
2022-12-19T03:24:21.789Z,52.27
2022-12-19T03:29:53.504Z,52.42
2022-12-19T03:35:20.968Z,52.34
2022-12-19T03:40:25.574Z,51.89
2022-12-19T03:45:54.476Z,51.93
2022-12-19T03:51:11.927Z,52.10
2022-12-19T03:56:42.978Z,51.93
2022-12-19T04:01:46.568Z,52.24
2022-12-19T04:06:48.586Z,51.93
2022-12-19T04:12:02.174Z,51.92
2022-12-19T04:17:22.437Z,52.12
2022-12-19T04:22:31.991Z,51.97
2022-12-19T04:27:37.105Z,51.91
2022-12-19T04:32:41.926Z,52.09
2022-12-19T04:37:43.771Z,52.46
2022-12-19T04:42:45.296Z,52.24
2022-12-19T04:47:46.830Z,52.07
2022-12-19T04:52:48.376Z,52.18
2022-12-19T04:57:49.858Z,52.30
2022-12-19T05:02:51.725Z,52.30
2022-12-19T05:07:53.491Z,52.20
2022-12-19T05:12:55.113Z,52.48
2022-12-19T05:17:57.493Z,52.48
2022-12-19T05:23:03.115Z,52.27
2022-12-19T05:28:05.958Z,52.57
2022-12-19T05:33:07.511Z,52.84
2022-12-19T05:38:09.157Z,52.26
2022-12-19T05:43:10.662Z,52.93
2022-12-19T05:48:12.205Z,52.74
2022-12-19T05:53:13.946Z,52.56
2022-12-19T05:58:18.760Z,52.33
2022-12-19T06:03:20.577Z,52.37
2022-12-19T06:08:22.380Z,52.63
2022-12-19T06:13:25.212Z,52.66
2022-12-19T06:18:28.240Z,52.27
2022-12-19T06:23:31.187Z,52.29
2022-12-19T06:28:33.578Z,52.52
2022-12-19T06:33:35.209Z,52.28
2022-12-19T06:38:37.006Z,52.42
2022-12-19T06:43:38.713Z,52.47
2022-12-19T06:48:40.440Z,52.90
2022-12-19T06:53:42.017Z,52.24
2022-12-19T06:58:43.559Z,52.39
2022-12-19T07:03:46.318Z,52.68
2022-12-19T07:08:47.905Z,52.76
2022-12-19T07:13:49.444Z,52.44
2022-12-19T07:18:51.133Z,52.77
2022-12-19T07:23:52.811Z,52.77
2022-12-19T07:28:54.518Z,53.00
2022-12-19T07:33:56.143Z,52.66
2022-12-19T07:38:57.707Z,53.14
2022-12-19T07:43:59.218Z,52.81
2022-12-19T07:49:00.840Z,52.95
2022-12-19T07:54:03.421Z,52.52
2022-12-19T07:59:05.085Z,52.76
2022-12-19T08:04:06.712Z,52.93
2022-12-19T08:09:08.712Z,52.76
2022-12-19T08:14:10.260Z,53.29
2022-12-19T08:19:11.844Z,53.08
2022-12-19T08:24:13.414Z,53.19
2022-12-19T08:29:14.989Z,52.94
2022-12-19T08:34:16.681Z,53.58
2022-12-19T08:39:18.234Z,53.52
2022-12-19T08:44:19.873Z,53.45
2022-12-19T08:49:21.579Z,53.68
2022-12-19T08:54:23.205Z,53.53
2022-12-19T08:59:31.025Z,53.44
2022-12-19T09:06:01.194Z,53.58
2022-12-19T09:09:55.128Z,53.56
2022-12-19T09:14:56.723Z,54.02
2022-12-19T09:19:58.198Z,54.20
2022-12-19T09:24:59.726Z,53.54
2022-12-19T09:30:01.988Z,53.45
2022-12-19T09:35:04.940Z,53.83
2022-12-19T09:40:07.276Z,53.36
2022-12-19T09:45:18.152Z,53.12
2022-12-19T09:50:50.962Z,53.34
2022-12-19T09:55:53.968Z,53.85
2022-12-19T10:01:00.253Z,53.72
2022-12-19T10:07:11.736Z,53.95
2022-12-19T10:12:44.662Z,53.36
2022-12-19T10:17:33.504Z,53.17
2022-12-19T10:22:51.169Z,53.48
2022-12-19T10:28:00.542Z,53.79
2022-12-19T10:33:29.893Z,53.51
2022-12-19T10:38:36.300Z,53.72
2022-12-19T10:43:51.093Z,53.68
2022-12-19T10:48:52.984Z,53.62
2022-12-19T10:53:57.086Z,53.63
2022-12-19T10:59:00.103Z,53.68
2022-12-19T11:04:21.491Z,53.30
2022-12-19T11:09:29.398Z,53.43
2022-12-19T11:18:47.173Z,53.69
2022-12-19T11:29:27.107Z,53.54
2022-12-19T11:29:33.610Z,53.45
2022-12-19T11:36:06.288Z,53.45
2022-12-19T11:41:41.343Z,53.78
2022-12-19T11:46:53.668Z,53.32
2022-12-19T11:52:54.247Z,53.23
2022-12-19T11:57:40.515Z,53.47
2022-12-19T12:03:04.060Z,53.69
2022-12-19T12:10:43.594Z,53.39
2022-12-19T12:21:40.389Z,53.55
2022-12-19T12:31:28.409Z,53.48
2022-12-19T12:32:06.319Z,53.76
2022-12-19T12:35:28.681Z,53.17
2022-12-19T12:42:42.226Z,53.46
2022-12-19T12:47:48.032Z,53.23
2022-12-19T12:52:53.823Z,53.24
2022-12-19T12:57:55.563Z,53.29
2022-12-19T13:03:09.425Z,53.38
2022-12-19T13:08:35.333Z,53.44
2022-12-19T13:13:55.411Z,53.41
2022-12-19T13:19:20.989Z,53.26
2022-12-19T13:24:25.674Z,53.44
2022-12-19T13:29:30.270Z,53.21
2022-12-19T13:34:37.201Z,53.43
2022-12-19T13:40:11.281Z,53.09
2022-12-19T13:45:22.489Z,53.08
2022-12-19T13:50:32.461Z,53.38
2022-12-19T13:55:34.098Z,53.28
2022-12-19T14:00:41.843Z,53.09
2022-12-19T14:06:17.276Z,52.99
2022-12-19T14:11:38.436Z,53.39
2022-12-19T14:16:40.169Z,53.01
2022-12-19T14:22:04.563Z,53.17
2022-12-19T14:28:20.527Z,53.35
2022-12-19T14:33:44.502Z,53.01
2022-12-19T14:39:20.703Z,53.17
2022-12-19T14:43:58.926Z,53.57
2022-12-19T14:54:06.895Z,53.10
2022-12-19T14:59:47.761Z,53.35
2022-12-19T15:05:02.758Z,53.51
2022-12-19T15:10:59.935Z,53.36
2022-12-19T15:15:38.731Z,53.14
2022-12-19T15:20:40.618Z,53.34
2022-12-19T15:26:03.410Z,53.40
2022-12-19T15:31:30.069Z,53.06
2022-12-19T15:36:31.938Z,53.39
2022-12-19T15:41:34.543Z,53.40
2022-12-19T15:46:38.891Z,53.44
2022-12-19T15:51:44.808Z,53.45
2022-12-19T15:56:56.390Z,53.56
2022-12-19T16:01:58.305Z,53.65
2022-12-19T16:06:59.907Z,53.61
2022-12-19T16:12:01.476Z,53.47
2022-12-19T16:17:03.097Z,53.68
2022-12-19T16:22:17.766Z,53.36
2022-12-19T16:27:23.843Z,53.21
2022-12-19T16:32:25.581Z,53.97
2022-12-19T16:37:31.960Z,53.89
2022-12-19T16:42:34.048Z,53.50
2022-12-19T16:47:35.633Z,53.50
2022-12-19T16:52:42.375Z,53.69
2022-12-19T16:57:46.625Z,53.72
2022-12-19T17:02:58.567Z,53.25
2022-12-19T17:08:00.193Z,53.54
2022-12-19T17:13:03.485Z,53.87
2022-12-19T17:18:26.999Z,53.58
2022-12-19T17:23:30.971Z,53.70
2022-12-19T17:28:32.519Z,53.39
2022-12-19T17:33:36.875Z,53.54
2022-12-19T17:38:38.822Z,53.89
2022-12-19T17:43:40.723Z,54.01
2022-12-19T17:48:43.651Z,53.66
2022-12-19T17:53:45.884Z,54.02
2022-12-19T17:58:48.814Z,53.95
2022-12-19T18:03:53.635Z,53.81
2022-12-19T18:08:55.663Z,53.53
2022-12-19T18:13:57.400Z,53.85
2022-12-19T18:18:58.956Z,54.06
2022-12-19T18:24:00.600Z,53.84
2022-12-19T18:29:02.378Z,53.88
2022-12-19T18:34:08.009Z,53.97
2022-12-19T18:39:22.410Z,54.00
2022-12-19T18:44:24.176Z,54.08
2022-12-19T18:49:27.693Z,54.09
2022-12-19T18:54:29.481Z,53.74
2022-12-19T18:59:31.015Z,53.81
2022-12-19T19:04:33.193Z,53.79
2022-12-19T19:09:34.778Z,53.71
2022-12-19T19:14:48.407Z,53.56
2022-12-19T19:19:49.995Z,54.03
2022-12-19T19:24:51.558Z,53.59
2022-12-19T19:29:53.102Z,53.53
2022-12-19T19:34:55.680Z,53.65
2022-12-19T19:39:57.297Z,53.39
2022-12-19T19:44:58.949Z,53.60
2022-12-19T19:50:00.720Z,53.93
2022-12-19T19:55:02.584Z,53.74
2022-12-19T20:00:06.530Z,53.42
2022-12-19T20:05:15.338Z,53.62
2022-12-19T20:10:17.007Z,53.38
2022-12-19T20:15:18.592Z,53.55
2022-12-19T20:20:20.187Z,53.19
2022-12-19T20:25:21.783Z,53.06
2022-12-19T20:30:23.509Z,53.26
2022-12-19T20:35:25.133Z,53.01
2022-12-19T20:40:26.712Z,53.31
2022-12-19T20:45:29.364Z,53.54
2022-12-19T20:50:30.956Z,52.70
2022-12-19T20:55:32.954Z,53.36
2022-12-19T21:00:34.537Z,53.52
2022-12-19T21:05:36.137Z,53.44
2022-12-19T21:10:38.051Z,53.39
2022-12-19T21:15:39.783Z,53.37
2022-12-19T21:20:41.348Z,52.89
2022-12-19T21:25:43.110Z,53.18
2022-12-19T21:30:44.739Z,53.05
2022-12-19T21:35:46.352Z,53.03
2022-12-19T21:40:48.373Z,53.29
2022-12-19T21:45:50.137Z,53.49
2022-12-19T21:50:55.822Z,53.53
2022-12-19T21:56:24.121Z,53.51
2022-12-19T22:01:26.601Z,53.13
2022-12-19T22:06:31.720Z,53.49
2022-12-19T22:11:34.946Z,53.56
2022-12-19T22:16:36.707Z,53.18
2022-12-19T22:21:38.347Z,53.26
2022-12-19T22:26:40.611Z,53.08
2022-12-19T22:31:43.254Z,52.96
2022-12-19T22:36:45.735Z,53.64
2022-12-19T22:41:47.299Z,53.32
2022-12-19T22:46:49.881Z,53.56
2022-12-19T22:51:51.450Z,53.63
2022-12-19T22:56:53.069Z,53.67
2022-12-19T23:01:54.775Z,53.38
2022-12-19T23:06:56.461Z,53.63
2022-12-19T23:11:58.088Z,53.42
2022-12-19T23:16:59.759Z,53.62
2022-12-19T23:22:01.406Z,53.23
2022-12-19T23:27:03.265Z,53.68
2022-12-19T23:32:05.249Z,53.39
2022-12-19T23:37:11.596Z,53.57
2022-12-19T23:42:14.182Z,53.73
2022-12-19T23:47:16.016Z,53.34
2022-12-19T23:52:17.645Z,53.34
2022-12-19T23:57:19.345Z,53.39
